Main page
METAR-TAF:

METAR-TAF

Airports :

Asturias Airport

Avilés, Spain

latitude: 43-33N, longitude: 006-02W, elevation: 127 m

Current weather observation

The report was made 34 minutes ago, at 20:30 UTC
Wind 10 kt from the East/Southeast, varying between East and South/Southeast
Temperature 6°C
Humidity 70%
Pressure 1034 hPa
Visibility 10 km or more
Scattered clouds at a height of 3600 ft

METAR: LEAS 212030Z 11010KT 080V160 9999 SCT036 06/01 Q1034 NOSIG

Time: 22:04 (21:04 UTC)

Forecast

The report was made 1 hour and 4 minutes ago, at 20:00 UTC
Forecast valid from 21 at 21 UTC to 22 at 21 UTC
Wind 9 kt from the East
Visibility 10 km or more
Few clouds at a height of 3000 ft
Probability 30% :
Temporary
from 22 at 11 UTC to 22 at 18 UTC
Wind 15 kt from the East with gusts up to 25 kt

TAF: LEAS 212000Z 2121/2221 10009KT 9999 FEW030 TX09/2215Z TN02/2206Z PROB30 TEMPO 2211/2218 08015G25KT

Weather observations and forecasts of more than 4000 airports (METAR and TAF reports).

The available stations are represented by yellow and red dots on the map.

Hover mouse over dot to see the name of the station.

Then click to see weather observations and forecasts.

To change the map : click on the green buttons with a black cross to zoom in, on the green button with a dash to zoom out, or on the green arrows for adjacent maps.


METAR-TAF: